sensor_id;sensor_type;location;lat;lon;timestamp;pressure;altitude;pressure_sealevel;temperature;humidity
40992;BME280;29633;49.168;9.848;2023-05-02T00:00:29;96898.31;;;14.08;63.75
40992;BME280;29633;49.168;9.848;2023-05-02T00:02:55;96895.88;;;14.06;63.82
40992;BME280;29633;49.168;9.848;2023-05-02T00:05:21;96896.84;;;14.05;63.83
40992;BME280;29633;49.168;9.848;2023-05-02T00:07:47;96896.28;;;14.02;63.91
40992;BME280;29633;49.168;9.848;2023-05-02T00:10:13;96892.47;;;13.96;63.92
40992;BME280;29633;49.168;9.848;2023-05-02T00:12:38;96892.63;;;13.95;63.83
40992;BME280;29633;49.168;9.848;2023-05-02T00:15:05;96890.97;;;13.94;63.84
40992;BME280;29633;49.168;9.848;2023-05-02T00:17:31;96898.13;;;13.92;63.71
40992;BME280;29633;49.168;9.848;2023-05-02T00:19:56;96885.09;;;13.92;63.76
40992;BME280;29633;49.168;9.848;2023-05-02T00:22:22;96884.25;;;13.91;63.96
40992;BME280;29633;49.168;9.848;2023-05-02T00:24:47;96885.75;;;13.94;63.65
40992;BME280;29633;49.168;9.848;2023-05-02T00:27:13;96890.97;;;13.94;63.81
40992;BME280;29633;49.168;9.848;2023-05-02T00:29:39;96899.06;;;13.91;63.74
40992;BME280;29633;49.168;9.848;2023-05-02T00:32:05;96892.34;;;13.88;63.88
40992;BME280;29633;49.168;9.848;2023-05-02T00:34:31;96894.13;;;13.88;63.75
40992;BME280;29633;49.168;9.848;2023-05-02T00:36:58;96895.09;;;13.87;63.78
40992;BME280;29633;49.168;9.848;2023-05-02T00:39:23;96887.16;;;13.88;63.81
40992;BME280;29633;49.168;9.848;2023-05-02T00:41:59;96898.53;;;13.87;63.76
40992;BME280;29633;49.168;9.848;2023-05-02T00:44:47;96894.25;;;13.86;63.97
40992;BME280;29633;49.168;9.848;2023-05-02T00:47:14;96892.78;;;13.84;64.00
40992;BME280;29633;49.168;9.848;2023-05-02T00:49:40;96891.81;;;13.85;64.00
40992;BME280;29633;49.168;9.848;2023-05-02T00:52:07;96890.16;;;13.84;64.05
40992;BME280;29633;49.168;9.848;2023-05-02T00:54:33;96891.81;;;13.85;64.07
40992;BME280;29633;49.168;9.848;2023-05-02T00:56:58;96889.06;;;13.86;63.88
40992;BME280;29633;49.168;9.848;2023-05-02T00:59:24;96890.72;;;13.87;63.85
40992;BME280;29633;49.168;9.848;2023-05-02T01:02:05;96894.97;;;13.88;63.91
40992;BME280;29633;49.168;9.848;2023-05-02T01:10:13;96897.41;;;13.90;64.05
40992;BME280;29633;49.168;9.848;2023-05-02T01:13:02;96901.00;;;13.89;63.92
40992;BME280;29633;49.168;9.848;2023-05-02T01:15:28;96903.59;;;13.89;63.92
40992;BME280;29633;49.168;9.848;2023-05-02T01:17:55;96901.00;;;13.89;63.92
40992;BME280;29633;49.168;9.848;2023-05-02T01:20:22;96902.09;;;13.86;64.10
40992;BME280;29633;49.168;9.848;2023-05-02T01:22:51;96898.25;;;13.80;64.17
40992;BME280;29633;49.168;9.848;2023-05-02T01:25:40;96905.13;;;13.82;64.13
40992;BME280;29633;49.168;9.848;2023-05-02T01:28:35;96909.53;;;13.81;64.05
40992;BME280;29633;49.168;9.848;2023-05-02T01:31:03;96907.88;;;13.80;64.11
40992;BME280;29633;49.168;9.848;2023-05-02T01:33:30;96907.88;;;13.80;64.12
40992;BME280;29633;49.168;9.848;2023-05-02T01:36:18;96915.25;;;13.75;64.15
40992;BME280;29633;49.168;9.848;2023-05-02T01:38:48;96912.13;;;13.71;64.33
40992;BME280;29633;49.168;9.848;2023-05-02T01:41:14;96914.34;;;13.66;64.39
40992;BME280;29633;49.168;9.848;2023-05-02T01:43:40;96924.06;;;13.64;64.26
40992;BME280;29633;49.168;9.848;2023-05-02T01:46:07;96922.69;;;13.60;64.36
40992;BME280;29633;49.168;9.848;2023-05-02T01:48:34;96931.88;;;13.55;64.23
40992;BME280;29633;49.168;9.848;2023-05-02T01:51:00;96923.94;;;13.56;64.39
40992;BME280;29633;49.168;9.848;2023-05-02T01:53:27;96924.06;;;13.55;64.16
40992;BME280;29633;49.168;9.848;2023-05-02T01:55:54;96920.50;;;13.56;64.33
40992;BME280;29633;49.168;9.848;2023-05-02T01:58:21;96920.91;;;13.51;64.14
40992;BME280;29633;49.168;9.848;2023-05-02T02:00:48;96935.16;;;13.47;64.30
40992;BME280;29633;49.168;9.848;2023-05-02T02:03:15;96931.75;;;13.47;64.40
40992;BME280;29633;49.168;9.848;2023-05-02T02:05:42;96932.84;;;13.44;64.22
40992;BME280;29633;49.168;9.848;2023-05-02T02:08:08;96934.19;;;13.39;64.40
40992;BME280;29633;49.168;9.848;2023-05-02T02:10:40;96936.13;;;13.37;64.42
40992;BME280;29633;49.168;9.848;2023-05-02T02:13:28;96933.91;;;13.32;64.29
40992;BME280;29633;49.168;9.848;2023-05-02T02:15:58;96934.91;;;13.31;64.38
40992;BME280;29633;49.168;9.848;2023-05-02T02:18:24;96931.31;;;13.32;64.13
40992;BME280;29633;49.168;9.848;2023-05-02T02:20:52;96937.34;;;13.32;64.27
40992;BME280;29633;49.168;9.848;2023-05-02T02:23:19;96941.72;;;13.32;64.13
40992;BME280;29633;49.168;9.848;2023-05-02T02:25:46;96937.63;;;13.29;64.31
40992;BME280;29633;49.168;9.848;2023-05-02T02:28:13;96941.34;;;13.27;64.34
40992;BME280;29633;49.168;9.848;2023-05-02T02:30:38;96939.81;;;13.24;64.31
40992;BME280;29633;49.168;9.848;2023-05-02T02:33:04;96939.25;;;13.21;64.42
40992;BME280;29633;49.168;9.848;2023-05-02T02:35:36;96950.09;;;13.16;64.56
40992;BME280;29633;49.168;9.848;2023-05-02T02:38:09;96954.03;;;13.11;64.48
40992;BME280;29633;49.168;9.848;2023-05-02T02:40:56;96963.88;;;13.07;64.51
40992;BME280;29633;49.168;9.848;2023-05-02T02:43:31;96956.44;;;13.03;64.53
40992;BME280;29633;49.168;9.848;2023-05-02T02:47:00;96963.31;;;13.04;64.36
40992;BME280;29633;49.168;9.848;2023-05-02T02:51:43;96968.25;;;13.07;64.33
40992;BME280;29633;49.168;9.848;2023-05-02T02:54:37;96968.50;;;13.04;64.37
40992;BME280;29633;49.168;9.848;2023-05-02T02:59:41;96973.16;;;13.00;64.41
40992;BME280;29633;49.168;9.848;2023-05-02T03:02:12;96974.66;;;13.03;64.41
40992;BME280;29633;49.168;9.848;2023-05-02T03:04:42;96977.53;;;13.00;64.44
40992;BME280;29633;49.168;9.848;2023-05-02T03:07:08;96979.31;;;12.99;64.42
40992;BME280;29633;49.168;9.848;2023-05-02T03:09:45;96987.53;;;12.95;64.50
40992;BME280;29633;49.168;9.848;2023-05-02T03:12:12;96983.84;;;12.97;64.38
40992;BME280;29633;49.168;9.848;2023-05-02T03:14:38;96994.09;;;12.99;64.35
40992;BME280;29633;49.168;9.848;2023-05-02T03:17:04;96989.59;;;13.01;64.25
40992;BME280;29633;49.168;9.848;2023-05-02T03:19:30;96994.53;;;13.04;64.29
40992;BME280;29633;49.168;9.848;2023-05-02T03:21:56;96998.78;;;13.05;64.16
40992;BME280;29633;49.168;9.848;2023-05-02T03:24:21;96991.81;;;13.05;64.14
40992;BME280;29633;49.168;9.848;2023-05-02T03:26:47;96995.38;;;13.04;64.54
40992;BME280;29633;49.168;9.848;2023-05-02T03:29:13;96998.09;;;13.03;64.53
40992;BME280;29633;49.168;9.848;2023-05-02T03:31:39;97007.56;;;13.04;64.45
40992;BME280;29633;49.168;9.848;2023-05-02T03:34:05;97011.53;;;13.08;64.45
40992;BME280;29633;49.168;9.848;2023-05-02T03:36:31;97014.84;;;13.10;64.38
40992;BME280;29633;49.168;9.848;2023-05-02T03:38:57;97017.34;;;13.11;64.38
40992;BME280;29633;49.168;9.848;2023-05-02T03:41:22;97016.38;;;13.12;64.34
40992;BME280;29633;49.168;9.848;2023-05-02T03:43:50;97022.25;;;13.14;64.34
40992;BME280;29633;49.168;9.848;2023-05-02T03:46:15;97019.53;;;13.16;64.53
40992;BME280;29633;49.168;9.848;2023-05-02T03:48:41;97021.16;;;13.17;64.48
40992;BME280;29633;49.168;9.848;2023-05-02T03:51:06;97020.78;;;13.21;64.32
40992;BME280;29633;49.168;9.848;2023-05-02T03:53:34;97021.22;;;13.26;64.35
40992;BME280;29633;49.168;9.848;2023-05-02T03:56:00;97018.22;;;13.31;64.44
40992;BME280;29633;49.168;9.848;2023-05-02T03:58:25;97025.47;;;13.37;64.24
40992;BME280;29633;49.168;9.848;2023-05-02T04:00:51;97026.16;;;13.39;64.14
40992;BME280;29633;49.168;9.848;2023-05-02T04:03:18;97034.69;;;13.41;64.34
40992;BME280;29633;49.168;9.848;2023-05-02T04:05:44;97032.91;;;13.42;64.39
40992;BME280;29633;49.168;9.848;2023-05-02T04:08:10;97035.34;;;13.43;64.30
40992;BME280;29633;49.168;9.848;2023-05-02T04:10:36;97035.78;;;13.48;64.48
40992;BME280;29633;49.168;9.848;2023-05-02T04:13:02;97035.50;;;13.51;64.36
40992;BME280;29633;49.168;9.848;2023-05-02T04:15:28;97044.00;;;13.53;64.44
40992;BME280;29633;49.168;9.848;2023-05-02T04:17:56;97043.75;;;13.56;64.46
40992;BME280;29633;49.168;9.848;2023-05-02T04:20:22;97049.53;;;13.60;64.61
40992;BME280;29633;49.168;9.848;2023-05-02T04:22:47;97050.31;;;13.60;64.37
40992;BME280;29633;49.168;9.848;2023-05-02T04:25:14;97050.88;;;13.64;64.60
40992;BME280;29633;49.168;9.848;2023-05-02T04:27:40;97049.91;;;13.65;64.62
40992;BME280;29633;49.168;9.848;2023-05-02T04:30:06;97054.03;;;13.67;64.60
40992;BME280;29633;49.168;9.848;2023-05-02T04:32:32;97056.38;;;13.70;64.66
40992;BME280;29633;49.168;9.848;2023-05-02T04:34:58;97055.28;;;13.73;64.61
40992;BME280;29633;49.168;9.848;2023-05-02T04:37:24;97058.44;;;13.76;64.67
40992;BME280;29633;49.168;9.848;2023-05-02T04:39:50;97059.94;;;13.79;64.65
40992;BME280;29633;49.168;9.848;2023-05-02T04:42:15;97061.31;;;13.83;64.62
40992;BME280;29633;49.168;9.848;2023-05-02T04:44:41;97064.34;;;13.88;64.48
40992;BME280;29633;49.168;9.848;2023-05-02T04:47:07;97061.47;;;13.91;64.52
40992;BME280;29633;49.168;9.848;2023-05-02T04:49:32;97067.78;;;13.89;64.79
40992;BME280;29633;49.168;9.848;2023-05-02T04:51:58;97073.69;;;13.91;64.82
40992;BME280;29633;49.168;9.848;2023-05-02T04:54:26;97072.72;;;13.92;64.73
40992;BME280;29633;49.168;9.848;2023-05-02T04:56:52;97065.56;;;13.94;64.77
40992;BME280;29633;49.168;9.848;2023-05-02T04:59:18;97068.88;;;13.96;64.72
40992;BME280;29633;49.168;9.848;2023-05-02T05:01:43;97076.72;;;13.96;64.84
40992;BME280;29633;49.168;9.848;2023-05-02T05:04:09;97079.88;;;13.99;64.82
40992;BME280;29633;49.168;9.848;2023-05-02T05:06:35;97072.88;;;14.00;64.96
40992;BME280;29633;49.168;9.848;2023-05-02T05:09:01;97073.66;;;14.00;65.03
40992;BME280;29633;49.168;9.848;2023-05-02T05:11:27;97079.19;;;14.07;65.00
40992;BME280;29633;49.168;9.848;2023-05-02T05:13:52;97087.56;;;14.10;64.99
40992;BME280;29633;49.168;9.848;2023-05-02T05:16:20;97086.44;;;14.13;65.02
40992;BME280;29633;49.168;9.848;2023-05-02T05:18:45;97096.47;;;14.17;64.95
40992;BME280;29633;49.168;9.848;2023-05-02T05:21:11;97098.63;;;14.22;64.96
40992;BME280;29633;49.168;9.848;2023-05-02T05:23:37;97106.34;;;14.23;64.93
40992;BME280;29633;49.168;9.848;2023-05-02T05:26:10;97100.28;;;14.23;65.06
40992;BME280;29633;49.168;9.848;2023-05-02T05:28:36;97107.84;;;14.26;65.11
40992;BME280;29633;49.168;9.848;2023-05-02T05:31:08;97115.38;;;14.29;65.25
40992;BME280;29633;49.168;9.848;2023-05-02T05:33:35;97118.28;;;14.26;65.37
40992;BME280;29633;49.168;9.848;2023-05-02T05:36:05;97123.34;;;14.27;65.32
40992;BME280;29633;49.168;9.848;2023-05-02T05:38:31;97128.69;;;14.26;65.47
40992;BME280;29633;49.168;9.848;2023-05-02T05:40:57;97134.91;;;14.25;65.62
40992;BME280;29633;49.168;9.848;2023-05-02T05:43:23;97141.75;;;14.26;65.35
40992;BME280;29633;49.168;9.848;2023-05-02T05:45:52;97142.56;;;14.26;65.59
40992;BME280;29633;49.168;9.848;2023-05-02T05:48:17;97142.56;;;14.26;65.57
40992;BME280;29633;49.168;9.848;2023-05-02T05:50:45;97143.13;;;14.30;65.72
40992;BME280;29633;49.168;9.848;2023-05-02T05:53:12;97147.13;;;14.34;65.74
40992;BME280;29633;49.168;9.848;2023-05-02T05:55:37;97153.59;;;14.40;65.63
40992;BME280;29633;49.168;9.848;2023-05-02T05:58:04;97151.66;;;14.42;65.77
40992;BME280;29633;49.168;9.848;2023-05-02T06:00:29;97157.44;;;14.45;65.83
40992;BME280;29633;49.168;9.848;2023-05-02T06:02:55;97156.19;;;14.49;65.73
40992;BME280;29633;49.168;9.848;2023-05-02T06:05:21;97153.59;;;14.49;65.91
40992;BME280;29633;49.168;9.848;2023-05-02T06:07:46;97157.56;;;14.53;65.78
40992;BME280;29633;49.168;9.848;2023-05-02T06:10:12;97160.72;;;14.57;65.75
40992;BME280;29633;49.168;9.848;2023-05-02T06:12:38;97161.13;;;14.62;65.91
40992;BME280;29633;49.168;9.848;2023-05-02T06:15:03;97165.94;;;14.66;65.88
40992;BME280;29633;49.168;9.848;2023-05-02T06:17:29;97168.25;;;14.69;65.83
40992;BME280;29633;49.168;9.848;2023-05-02T06:19:55;97173.34;;;14.71;65.83
40992;BME280;29633;49.168;9.848;2023-05-02T06:22:21;97179.13;;;14.74;65.90
40992;BME280;29633;49.168;9.848;2023-05-02T06:24:46;97182.41;;;14.76;65.93
40992;BME280;29633;49.168;9.848;2023-05-02T06:27:12;97189.94;;;14.79;65.98
40992;BME280;29633;49.168;9.848;2023-05-02T06:29:38;97180.88;;;14.84;65.84
40992;BME280;29633;49.168;9.848;2023-05-02T06:32:03;97200.41;;;14.89;65.90
40992;BME280;29633;49.168;9.848;2023-05-02T06:34:32;97191.31;;;14.93;65.89
40992;BME280;29633;49.168;9.848;2023-05-02T06:36:58;97197.22;;;14.95;65.88
40992;BME280;29633;49.168;9.848;2023-05-02T06:39:24;97192.69;;;14.97;65.91
40992;BME280;29633;49.168;9.848;2023-05-02T06:41:50;97201.06;;;15.01;65.86
40992;BME280;29633;49.168;9.848;2023-05-02T06:44:15;97199.13;;;15.03;65.98
40992;BME280;29633;49.168;9.848;2023-05-02T06:46:41;97201.31;;;15.07;66.18
40992;BME280;29633;49.168;9.848;2023-05-02T06:49:07;97207.75;;;15.13;66.03
40992;BME280;29633;49.168;9.848;2023-05-02T06:51:35;97207.22;;;15.19;65.97
40992;BME280;29633;49.168;9.848;2023-05-02T06:54:01;97210.38;;;15.22;66.12
40992;BME280;29633;49.168;9.848;2023-05-02T06:56:29;97212.16;;;15.22;66.09
40992;BME280;29633;49.168;9.848;2023-05-02T06:58:55;97222.44;;;15.23;66.16
40992;BME280;29633;49.168;9.848;2023-05-02T07:01:21;97222.59;;;15.22;66.30
40992;BME280;29633;49.168;9.848;2023-05-02T07:03:46;97232.06;;;15.23;66.43
40992;BME280;29633;49.168;9.848;2023-05-02T07:06:14;97233.44;;;15.27;66.28
40992;BME280;29633;49.168;9.848;2023-05-02T07:08:40;97235.38;;;15.25;66.44
40992;BME280;29633;49.168;9.848;2023-05-02T07:11:08;97238.66;;;15.27;66.48
40992;BME280;29633;49.168;9.848;2023-05-02T07:13:34;97242.50;;;15.33;66.54
40992;BME280;29633;49.168;9.848;2023-05-02T07:15:59;97243.34;;;15.33;66.51
40992;BME280;29633;49.168;9.848;2023-05-02T07:18:25;97237.66;;;15.38;66.30
40992;BME280;29633;49.168;9.848;2023-05-02T07:20:51;97239.03;;;15.42;66.41
40992;BME280;29633;49.168;9.848;2023-05-02T07:23:17;97236.97;;;15.45;66.54
40992;BME280;29633;49.168;9.848;2023-05-02T07:25:42;97239.28;;;15.48;66.44
40992;BME280;29633;49.168;9.848;2023-05-02T07:28:08;97244.28;;;15.51;66.48
40992;BME280;29633;49.168;9.848;2023-05-02T07:30:34;97248.25;;;15.55;66.58
40992;BME280;29633;49.168;9.848;2023-05-02T07:32:59;97250.72;;;15.57;66.68
40992;BME280;29633;49.168;9.848;2023-05-02T07:35:25;97247.28;;;15.56;66.54
40992;BME280;29633;49.168;9.848;2023-05-02T07:37:50;97250.69;;;15.66;66.49
40992;BME280;29633;49.168;9.848;2023-05-02T07:40:16;97255.88;;;15.76;66.49
40992;BME280;29633;49.168;9.848;2023-05-02T07:42:42;97256.81;;;15.85;66.41
40992;BME280;29633;49.168;9.848;2023-05-02T07:45:09;97253.47;;;15.92;66.33
40992;BME280;29633;49.168;9.848;2023-05-02T07:47:35;97257.03;;;16.01;66.31
40992;BME280;29633;49.168;9.848;2023-05-02T07:50:01;97249.19;;;16.01;66.38
40992;BME280;29633;49.168;9.848;2023-05-02T07:52:28;97257.94;;;16.09;66.44
40992;BME280;29633;49.168;9.848;2023-05-02T07:54:54;97258.03;;;16.17;66.27
40992;BME280;29633;49.168;9.848;2023-05-02T07:57:20;97265.00;;;16.27;66.29
40992;BME280;29633;49.168;9.848;2023-05-02T07:59:46;97259.72;;;16.36;66.26
40992;BME280;29633;49.168;9.848;2023-05-02T08:02:12;97260.09;;;16.41;66.31
40992;BME280;29633;49.168;9.848;2023-05-02T08:04:39;97255.53;;;16.43;66.32
40992;BME280;29633;49.168;9.848;2023-05-02T08:07:05;97255.94;;;16.48;66.26
40992;BME280;29633;49.168;9.848;2023-05-02T08:09:31;97261.28;;;16.56;66.22
40992;BME280;29633;49.168;9.848;2023-05-02T08:11:57;97264.66;;;16.66;66.47
40992;BME280;29633;49.168;9.848;2023-05-02T08:14:23;97259.34;;;16.76;66.23
40992;BME280;29633;49.168;9.848;2023-05-02T08:16:51;97268.75;;;16.87;66.29
40992;BME280;29633;49.168;9.848;2023-05-02T08:19:16;97275.44;;;16.99;66.29
40992;BME280;29633;49.168;9.848;2023-05-02T08:21:42;97271.75;;;17.09;66.06
40992;BME280;29633;49.168;9.848;2023-05-02T08:24:08;97275.41;;;17.16;66.24
40992;BME280;29633;49.168;9.848;2023-05-02T08:26:33;97270.38;;;17.23;66.26
40992;BME280;29633;49.168;9.848;2023-05-02T08:29:01;97277.84;;;17.36;66.16
40992;BME280;29633;49.168;9.848;2023-05-02T08:31:29;97278.38;;;17.39;66.18
40992;BME280;29633;49.168;9.848;2023-05-02T08:33:54;97280.81;;;17.41;66.22
40992;BME280;29633;49.168;9.848;2023-05-02T08:36:21;97286.56;;;17.44;66.43
40992;BME280;29633;49.168;9.848;2023-05-02T08:38:46;97286.34;;;17.55;66.36
40992;BME280;29633;49.168;9.848;2023-05-02T08:41:16;97285.44;;;17.64;66.12
40992;BME280;29633;49.168;9.848;2023-05-02T08:43:43;97293.16;;;17.66;66.39
40992;BME280;29633;49.168;9.848;2023-05-02T08:46:10;97287.31;;;17.72;66.27
40992;BME280;29633;49.168;9.848;2023-05-02T08:48:37;97293.06;;;17.76;66.34
40992;BME280;29633;49.168;9.848;2023-05-02T08:51:06;97284.88;;;17.79;66.27
40992;BME280;29633;49.168;9.848;2023-05-02T08:53:33;97293.31;;;17.90;66.23
40992;BME280;29633;49.168;9.848;2023-05-02T08:55:59;97293.19;;;18.00;66.08
40992;BME280;29633;49.168;9.848;2023-05-02T08:58:25;97301.09;;;18.08;66.40
40992;BME280;29633;49.168;9.848;2023-05-02T09:00:51;97302.59;;;18.10;66.42
40992;BME280;29633;49.168;9.848;2023-05-02T09:03:36;97310.00;;;18.15;66.23
40992;BME280;29633;49.168;9.848;2023-05-02T09:08:31;97312.22;;;18.36;66.31
40992;BME280;29633;49.168;9.848;2023-05-02T09:10:56;97313.22;;;18.43;66.38
40992;BME280;29633;49.168;9.848;2023-05-02T09:16:11;97305.94;;;18.62;65.96
40992;BME280;29633;49.168;9.848;2023-05-02T09:21:05;97307.94;;;18.77;66.01
40992;BME280;29633;49.168;9.848;2023-05-02T09:23:38;97311.56;;;18.84;65.93
40992;BME280;29633;49.168;9.848;2023-05-02T09:26:20;97307.31;;;18.91;66.07
40992;BME280;29633;49.168;9.848;2023-05-02T09:28:52;97311.91;;;18.97;66.15
40992;BME280;29633;49.168;9.848;2023-05-02T09:31:21;97299.28;;;19.08;66.07
40992;BME280;29633;49.168;9.848;2023-05-02T09:33:50;97306.16;;;19.17;66.14
40992;BME280;29633;49.168;9.848;2023-05-02T09:36:17;97306.53;;;19.31;65.92
40992;BME280;29633;49.168;9.848;2023-05-02T09:38:45;97307.06;;;19.42;65.83
40992;BME280;29633;49.168;9.848;2023-05-02T09:41:11;97301.44;;;19.53;65.66
40992;BME280;29633;49.168;9.848;2023-05-02T09:43:37;97311.78;;;19.71;65.69
40992;BME280;29633;49.168;9.848;2023-05-02T09:46:05;97320.13;;;19.83;65.61
40992;BME280;29633;49.168;9.848;2023-05-02T09:48:35;97317.97;;;19.86;65.50
40992;BME280;29633;49.168;9.848;2023-05-02T09:51:16;97313.25;;;19.82;65.51
40992;BME280;29633;49.168;9.848;2023-05-02T09:53:43;97319.66;;;19.79;65.63
40992;BME280;29633;49.168;9.848;2023-05-02T09:56:09;97322.13;;;19.81;65.54
40992;BME280;29633;49.168;9.848;2023-05-02T09:58:35;97319.47;;;19.89;65.89
40992;BME280;29633;49.168;9.848;2023-05-02T10:01:01;97313.88;;;20.00;65.54
40992;BME280;29633;49.168;9.848;2023-05-02T10:03:27;97314.00;;;20.06;65.63
40992;BME280;29633;49.168;9.848;2023-05-02T10:05:54;97317.59;;;20.13;65.36
40992;BME280;29633;49.168;9.848;2023-05-02T10:08:21;97317.75;;;20.20;65.56
40992;BME280;29633;49.168;9.848;2023-05-02T10:10:57;97315.94;;;20.29;65.20
40992;BME280;29633;49.168;9.848;2023-05-02T10:13:25;97313.09;;;20.38;65.46
40992;BME280;29633;49.168;9.848;2023-05-02T10:15:59;97316.66;;;20.53;65.25
40992;BME280;29633;49.168;9.848;2023-05-02T10:18:45;97313.16;;;20.61;64.93
40992;BME280;29633;49.168;9.848;2023-05-02T10:21:16;97320.69;;;20.72;64.96
40992;BME280;29633;49.168;9.848;2023-05-02T10:23:44;97311.72;;;20.81;65.08
40992;BME280;29633;49.168;9.848;2023-05-02T10:26:15;97304.25;;;20.93;65.21
40992;BME280;29633;49.168;9.848;2023-05-02T10:28:41;97309.59;;;21.07;64.98
40992;BME280;29633;49.168;9.848;2023-05-02T10:31:10;97302.13;;;21.19;65.03
40992;BME280;29633;49.168;9.848;2023-05-02T10:33:38;97310.66;;;21.21;64.76
40992;BME280;29633;49.168;9.848;2023-05-02T10:36:04;97305.13;;;21.16;64.90
40992;BME280;29633;49.168;9.848;2023-05-02T10:38:31;97305.75;;;21.18;64.83
40992;BME280;29633;49.168;9.848;2023-05-02T10:41:00;97306.84;;;21.24;64.67
40992;BME280;29633;49.168;9.848;2023-05-02T10:43:31;97308.34;;;21.26;65.00
40992;BME280;29633;49.168;9.848;2023-05-02T10:45:58;97302.88;;;21.28;64.98
40992;BME280;29633;49.168;9.848;2023-05-02T10:48:25;97303.69;;;21.28;64.98
40992;BME280;29633;49.168;9.848;2023-05-02T10:50:55;97302.69;;;21.29;65.00
40992;BME280;29633;49.168;9.848;2023-05-02T10:53:28;97294.44;;;21.32;65.08
40992;BME280;29633;49.168;9.848;2023-05-02T10:58:41;97288.56;;;21.45;64.65
40992;BME280;29633;49.168;9.848;2023-05-02T11:04:06;97283.84;;;21.55;64.37
40992;BME280;29633;49.168;9.848;2023-05-02T11:06:34;97292.84;;;21.60;64.57
40992;BME280;29633;49.168;9.848;2023-05-02T11:11:50;97287.81;;;21.88;63.89
40992;BME280;29633;49.168;9.848;2023-05-02T11:19:25;97273.63;;;22.04;63.87
40992;BME280;29633;49.168;9.848;2023-05-02T11:21:51;97277.09;;;22.04;63.77
40992;BME280;29633;49.168;9.848;2023-05-02T11:24:41;97283.03;;;22.06;63.98
40992;BME280;29633;49.168;9.848;2023-05-02T11:29:54;97282.44;;;22.11;63.70
40992;BME280;29633;49.168;9.848;2023-05-02T11:32:20;97276.72;;;22.07;64.08
40992;BME280;29633;49.168;9.848;2023-05-02T11:34:47;97284.28;;;22.11;63.79
40992;BME280;29633;49.168;9.848;2023-05-02T11:37:18;97291.19;;;22.12;63.76
40992;BME280;29633;49.168;9.848;2023-05-02T11:39:43;97287.28;;;22.07;63.47
40992;BME280;29633;49.168;9.848;2023-05-02T11:42:27;97301.69;;;22.05;63.45
40992;BME280;29633;49.168;9.848;2023-05-02T11:44:57;97297.59;;;22.02;63.65
40992;BME280;29633;49.168;9.848;2023-05-02T11:47:25;97301.03;;;22.03;63.53
40992;BME280;29633;49.168;9.848;2023-05-02T11:49:53;97303.50;;;22.04;63.55
40992;BME280;29633;49.168;9.848;2023-05-02T11:52:19;97320.53;;;22.02;63.72
40992;BME280;29633;49.168;9.848;2023-05-02T11:54:44;97321.06;;;21.97;63.68
40992;BME280;29633;49.168;9.848;2023-05-02T11:57:10;97318.97;;;21.93;63.29
40992;BME280;29633;49.168;9.848;2023-05-02T11:59:52;97320.47;;;21.87;63.74
40992;BME280;29633;49.168;9.848;2023-05-02T12:02:18;97314.28;;;21.80;63.75
40992;BME280;29633;49.168;9.848;2023-05-02T12:04:44;97324.38;;;21.77;63.58
40992;BME280;29633;49.168;9.848;2023-05-02T12:07:10;97321.44;;;21.72;63.39
40992;BME280;29633;49.168;9.848;2023-05-02T12:09:36;97326.91;;;21.70;63.41
40992;BME280;29633;49.168;9.848;2023-05-02T12:12:17;97321.50;;;21.64;63.57
40992;BME280;29633;49.168;9.848;2023-05-02T12:14:43;97324.41;;;21.54;63.70
40992;BME280;29633;49.168;9.848;2023-05-02T12:17:09;97324.78;;;21.51;63.67
40992;BME280;29633;49.168;9.848;2023-05-02T12:19:34;97328.13;;;21.45;63.39
40992;BME280;29633;49.168;9.848;2023-05-02T12:22:03;97326.84;;;21.41;63.43
40992;BME280;29633;49.168;9.848;2023-05-02T12:24:28;97323.38;;;21.40;63.21
40992;BME280;29633;49.168;9.848;2023-05-02T12:27:11;97324.72;;;21.36;63.56
40992;BME280;29633;49.168;9.848;2023-05-02T12:29:43;97324.63;;;21.30;63.65
40992;BME280;29633;49.168;9.848;2023-05-02T12:32:10;97328.59;;;21.26;63.44
40992;BME280;29633;49.168;9.848;2023-05-02T12:34:36;97329.13;;;21.21;63.73
40992;BME280;29633;49.168;9.848;2023-05-02T12:37:03;97331.13;;;21.19;63.74
40992;BME280;29633;49.168;9.848;2023-05-02T12:39:40;97328.66;;;21.18;63.59
40992;BME280;29633;49.168;9.848;2023-05-02T12:42:13;97326.22;;;21.16;64.02
40992;BME280;29633;49.168;9.848;2023-05-02T12:44:44;97336.41;;;21.19;63.68
40992;BME280;29633;49.168;9.848;2023-05-02T12:47:11;97337.03;;;21.21;63.97
40992;BME280;29633;49.168;9.848;2023-05-02T12:49:57;97335.69;;;21.25;63.91
40992;BME280;29633;49.168;9.848;2023-05-02T12:55:17;97337.91;;;21.36;63.82
40992;BME280;29633;49.168;9.848;2023-05-02T12:57:43;97338.06;;;21.35;64.19
40992;BME280;29633;49.168;9.848;2023-05-02T13:00:09;97339.00;;;21.42;63.89
40992;BME280;29633;49.168;9.848;2023-05-02T13:02:35;97341.78;;;21.48;63.86
40992;BME280;29633;49.168;9.848;2023-05-02T13:05:01;97337.50;;;21.47;64.11
40992;BME280;29633;49.168;9.848;2023-05-02T13:07:26;97335.84;;;21.46;64.13
40992;BME280;29633;49.168;9.848;2023-05-02T13:09:52;97339.84;;;21.42;64.42
40992;BME280;29633;49.168;9.848;2023-05-02T13:12:18;97342.84;;;21.39;64.00
40992;BME280;29633;49.168;9.848;2023-05-02T13:14:43;97338.28;;;21.33;64.45
40992;BME280;29633;49.168;9.848;2023-05-02T13:17:09;97338.78;;;21.29;64.33
40992;BME280;29633;49.168;9.848;2023-05-02T13:19:35;97340.13;;;21.25;64.05
40992;BME280;29633;49.168;9.848;2023-05-02T13:22:00;97341.94;;;21.24;64.24
40992;BME280;29633;49.168;9.848;2023-05-02T13:24:26;97342.97;;;21.23;64.03
40992;BME280;29633;49.168;9.848;2023-05-02T13:26:52;97336.41;;;21.19;63.97
40992;BME280;29633;49.168;9.848;2023-05-02T13:29:17;97331.13;;;21.19;64.02
40992;BME280;29633;49.168;9.848;2023-05-02T13:31:43;97339.19;;;21.18;63.86
40992;BME280;29633;49.168;9.848;2023-05-02T13:34:09;97332.13;;;21.18;64.21
40992;BME280;29633;49.168;9.848;2023-05-02T13:36:34;97330.19;;;21.12;64.00
40992;BME280;29633;49.168;9.848;2023-05-02T13:39:05;97333.31;;;21.07;64.09
40992;BME280;29633;49.168;9.848;2023-05-02T13:41:30;97329.38;;;21.03;63.84